Time;durP1;ratioP1;P1;durP2;ratioP2;P2;SDS_P1;SDS_P2;PMS_P1;PMS_P2;Temp;Humidity;BMP_temperature;BMP_pressure;BME280_temperature;BME280_humidity;BME280_pressure;Samples;Min_cycle;Max_cycle;Signal;HPM_P1;HPM_P2
2022/02/19 00:02:21;;;;;;;4.15;2.70;;;;;;;10.81;57.40;94951.50;1715712;83;20983;-85
2022/02/19 00:04:46;;;;;;;6.80;3.47;;;;;;;10.82;57.50;94965.56;1712901;83;21019;-85
2022/02/19 00:07:12;;;;;;;5.90;3.00;;;;;;;10.83;57.65;94958.05;1718554;82;21416;-86
2022/02/19 00:09:38;;;;;;;5.03;3.27;;;;;;;10.82;57.46;94974.66;1741609;82;21031;-85
2022/02/19 00:12:04;;;;;;;4.95;3.83;;;;;;;10.84;57.73;95016.02;1741781;82;21003;-85
2022/02/19 00:14:30;;;;;;;7.12;4.65;;;;;;;10.79;59.36;95055.64;1722843;82;21350;-86
2022/02/19 00:16:56;;;;;;;5.62;3.10;;;;;;;10.64;61.75;95073.37;1720004;83;21047;-85
2022/02/19 00:19:22;;;;;;;4.47;3.67;;;;;;;10.39;62.39;95103.73;1717719;83;21406;-86
2022/02/19 00:21:48;;;;;;;7.65;4.75;;;;;;;10.09;64.11;95118.59;1715619;83;21043;-85
2022/02/19 00:24:14;;;;;;;6.05;4.45;;;;;;;9.82;66.10;95132.70;1723891;82;20953;-85
2022/02/19 00:26:39;;;;;;;7.95;4.35;;;;;;;9.57;68.06;95148.16;1741705;82;21024;-85
2022/02/19 00:29:05;;;;;;;6.53;3.85;;;;;;;9.32;68.51;95171.38;1741689;82;20996;-85
2022/02/19 00:31:31;;;;;;;8.18;4.65;;;;;;;9.17;68.74;95178.09;1741010;82;21016;-85
2022/02/19 00:33:57;;;;;;;7.17;4.67;;;;;;;9.06;69.17;95218.06;1740778;82;21020;-85
2022/02/19 00:36:23;;;;;;;6.87;4.17;;;;;;;8.94;70.23;95226.42;1693510;83;21376;-84
2022/02/19 00:38:48;;;;;;;4.08;3.25;;;;;;;8.82;72.42;95206.02;1718105;83;21045;-84
2022/02/19 00:41:17;;;;;;;3.58;2.70;;;;;;;8.71;71.93;95173.73;1718322;83;21062;-85
2022/02/19 00:43:43;;;;;;;4.92;3.33;;;;;;;8.64;71.03;95186.39;1710131;82;21045;-85
2022/02/19 00:46:08;;;;;;;5.33;2.75;;;;;;;8.58;71.70;95194.94;1697432;83;21088;-85
2022/02/19 00:48:34;;;;;;;7.15;5.08;;;;;;;8.53;71.26;95206.39;1697526;84;21459;-84
2022/02/19 00:51:00;;;;;;;6.65;4.10;;;;;;;8.49;70.98;95192.25;1697498;84;21069;-84
2022/02/19 00:53:26;;;;;;;7.55;3.72;;;;;;;8.46;70.60;95177.91;1697464;84;21004;-84
2022/02/19 00:55:52;;;;;;;3.75;2.65;;;;;;;8.43;70.55;95189.44;1697420;84;21506;-84
2022/02/19 00:58:18;;;;;;;4.37;2.55;;;;;;;8.38;70.45;95211.24;1708970;82;20946;-84
2022/02/19 01:00:43;;;;;;;3.08;1.77;;;;;;;8.36;69.85;95214.53;1718350;83;21329;-84
2022/02/19 01:03:09;;;;;;;3.98;2.75;;;;;;;8.37;69.47;95216.62;1719861;82;20998;-84
2022/02/19 01:05:35;;;;;;;2.45;1.80;;;;;;;8.37;69.13;95203.18;1720780;83;20998;-85
2022/02/19 01:08:00;;;;;;;24.07;12.68;;;;;;;8.37;68.68;95179.88;1722535;83;20960;-85
2022/02/19 01:10:26;;;;;;;5.92;2.95;;;;;;;8.36;67.78;95195.11;1726334;83;20960;-84
2022/02/19 01:12:52;;;;;;;3.25;2.00;;;;;;;8.33;67.92;95176.07;1729295;82;20948;-85
2022/02/19 01:15:18;;;;;;;2.80;1.50;;;;;;;8.28;68.04;95188.78;1741084;82;21450;-84
2022/02/19 01:17:44;;;;;;;2.37;1.65;;;;;;;8.22;67.32;95177.13;1741535;82;20941;-84
2022/02/19 01:20:11;;;;;;;2.10;1.30;;;;;;;8.15;67.24;95162.91;1741799;82;21107;-85
2022/02/19 01:22:39;;;;;;;2.15;1.37;;;;;;;8.05;67.70;95152.92;1741413;82;21450;-84
2022/02/19 01:25:06;;;;;;;3.17;1.12;;;;;;;7.99;66.73;95191.72;1741475;82;21091;-84
2022/02/19 01:27:32;;;;;;;4.55;1.70;;;;;;;7.98;66.98;95194.80;1737390;82;21053;-84
2022/02/19 01:29:58;;;;;;;2.42;1.70;;;;;;;7.97;66.68;95198.84;1736664;83;21053;-84
2022/02/19 01:32:24;;;;;;;2.95;1.47;;;;;;;7.95;66.56;95211.17;1736536;83;21426;-84
2022/02/19 01:34:50;;;;;;;1.75;1.15;;;;;;;7.90;66.68;95207.89;1736691;83;21079;-84
2022/02/19 01:37:17;;;;;;;2.33;1.32;;;;;;;7.86;66.60;95204.59;1725483;83;21106;-84
2022/02/19 01:39:44;;;;;;;1.72;1.35;;;;;;;7.82;66.46;95211.95;1715626;84;21001;-84
2022/02/19 01:42:11;;;;;;;2.65;1.60;;;;;;;7.75;66.00;95210.61;1717072;83;21049;-84
2022/02/19 01:44:38;;;;;;;2.08;1.40;;;;;;;7.72;66.33;95208.41;1726640;83;20989;-84
2022/02/19 01:47:05;;;;;;;1.80;1.30;;;;;;;7.69;66.14;95211.39;1727259;83;21048;-84
2022/02/19 01:49:31;;;;;;;1.75;1.17;;;;;;;7.67;65.97;95222.42;1727506;83;21036;-84
2022/02/19 01:51:57;;;;;;;2.77;1.30;;;;;;;7.67;65.40;95225.50;1727436;83;20965;-85
2022/02/19 01:54:23;;;;;;;2.98;1.32;;;;;;;7.67;65.43;95223.71;1727415;83;21028;-84
2022/02/19 01:56:49;;;;;;;2.52;1.30;;;;;;;7.68;65.63;95218.05;1732508;83;21012;-84
2022/02/19 01:59:15;;;;;;;3.30;1.32;;;;;;;7.71;65.17;95221.04;1736601;82;20957;-85
2022/02/19 02:01:40;;;;;;;6.37;3.72;;;;;;;7.74;65.06;95211.60;1736711;83;20957;-84
2022/02/19 02:04:06;;;;;;;3.05;1.50;;;;;;;7.80;65.28;95228.13;1727678;81;21079;-84
2022/02/19 02:06:32;;;;;;;3.22;1.17;;;;;;;7.81;64.54;95226.67;1698312;84;21026;-84
2022/02/19 02:08:58;;;;;;;2.55;1.35;;;;;;;7.85;63.56;95236.13;1693810;81;20977;-85
2022/02/19 02:11:24;;;;;;;2.30;1.20;;;;;;;7.91;63.36;95242.30;1698639;83;20977;-84
2022/02/19 02:13:52;;;;;;;2.15;0.82;;;;;;;7.93;62.33;95249.38;1720726;83;21013;-85
2022/02/19 02:16:17;;;;;;;1.52;0.80;;;;;;;7.95;60.97;95236.55;1722262;83;21005;-85
2022/02/19 02:18:45;;;;;;;1.47;1.05;;;;;;;7.95;61.34;95238.34;1715621;84;21056;-85
2022/02/19 02:21:11;;;;;;;1.32;1.00;;;;;;;7.93;59.33;95236.44;1715521;84;21002;-85
2022/02/19 02:23:37;;;;;;;2.33;0.90;;;;;;;7.93;59.33;95246.79;1719249;82;21418;-85
2022/02/19 02:26:03;;;;;;;0.80;0.65;;;;;;;7.91;58.92;95229.37;1714497;83;21077;-85
2022/02/19 02:28:29;;;;;;;1.22;0.72;;;;;;;7.90;57.37;95231.66;1721679;82;21052;-85
2022/02/19 02:30:55;;;;;;;2.42;1.07;;;;;;;7.88;57.64;95236.23;1727542;83;21380;-84
2022/02/19 02:33:21;;;;;;;1.00;0.80;;;;;;;7.87;57.36;95236.73;1727372;83;21032;-85
2022/02/19 02:35:49;;;;;;;2.90;0.72;;;;;;;7.84;56.15;95250.05;1725135;83;21025;-85
2022/02/19 02:38:15;;;;;;;1.07;0.57;;;;;;;7.85;56.28;95237.91;1727383;83;21088;-85
2022/02/19 02:40:41;;;;;;;1.35;0.80;;;;;;;7.83;54.06;95208.38;1736596;83;21028;-85
2022/02/19 02:43:07;;;;;;;2.00;1.00;;;;;;;7.83;54.74;95242.78;1727318;82;21430;-85
2022/02/19 02:45:32;;;;;;;1.95;0.70;;;;;;;7.81;54.30;95259.48;1727575;83;21544;-85
2022/02/19 02:47:58;;;;;;;1.45;0.80;;;;;;;7.80;51.21;95251.40;1727488;83;21084;-85
2022/02/19 02:50:24;;;;;;;2.37;0.60;;;;;;;7.81;53.16;95282.77;1727342;83;21024;-84
2022/02/19 02:52:49;;;;;;;1.40;0.70;;;;;;;7.77;53.61;95278.94;1727452;83;21383;-85
2022/02/19 02:55:15;;;;;;;2.55;0.62;;;;;;;7.71;52.93;95306.37;1696687;84;21033;-85
2022/02/19 02:57:42;;;;;;;0.93;0.62;;;;;;;7.71;50.61;95328.84;1715777;82;21052;-85
2022/02/19 03:00:11;;;;;;;1.27;0.80;;;;;;;7.70;49.93;95304.77;1727422;83;21000;-85
2022/02/19 03:02:37;;;;;;;1.15;0.70;;;;;;;7.71;50.38;95298.61;1727441;83;21083;-85
2022/02/19 03:05:07;;;;;;;1.80;0.70;;;;;;;7.67;51.29;95305.16;1716291;81;21020;-85
2022/02/19 03:07:34;;;;;;;2.50;0.70;;;;;;;7.50;51.41;95280.59;1723689;83;21406;-85
2022/02/19 03:10:00;;;;;;;2.17;1.00;;;;;;;7.62;51.99;95317.83;1723804;83;20989;-85
2022/02/19 03:12:26;;;;;;;1.42;0.78;;;;;;;7.61;52.46;95303.80;1723714;82;21489;-85
2022/02/19 03:14:52;;;;;;;1.98;0.78;;;;;;;7.59;52.34;95328.55;1732431;83;21028;-85
2022/02/19 03:17:17;;;;;;;1.90;0.80;;;;;;;7.56;52.46;95331.52;1736574;83;21012;-85
2022/02/19 03:19:45;;;;;;;1.40;1.07;;;;;;;7.54;52.65;95341.25;1736529;83;20999;-85
2022/02/19 03:22:12;;;;;;;1.90;0.62;;;;;;;7.52;52.00;95345.32;1736557;83;20999;-85
2022/02/19 03:24:39;;;;;;;1.87;0.72;;;;;;;7.50;52.35;95347.30;1723625;83;20982;-85
2022/02/19 03:27:05;;;;;;;0.78;0.42;;;;;;;7.46;50.87;95340.88;1724068;83;21586;-85
2022/02/19 03:29:31;;;;;;;2.12;0.60;;;;;;;7.42;51.62;95351.79;1733551;83;21036;-85
2022/02/19 03:31:57;;;;;;;2.25;0.65;;;;;;;7.38;51.11;95335.06;1733882;82;21028;-85
2022/02/19 03:34:23;;;;;;;1.98;0.65;;;;;;;7.38;51.42;95345.41;1731045;82;21108;-85
2022/02/19 03:36:50;;;;;;;1.42;0.78;;;;;;;7.35;51.05;95347.88;1727734;83;20946;-85
2022/02/19 03:39:15;;;;;;;2.12;0.60;;;;;;;7.34;51.36;95365.66;1727643;83;21016;-85
2022/02/19 03:41:41;;;;;;;1.32;0.70;;;;;;;7.32;50.91;95365.05;1727859;83;21325;-85
2022/02/19 03:44:07;;;;;;;2.25;0.82;;;;;;;7.30;50.64;95351.48;1727742;82;21367;-86
2022/02/19 03:46:36;;;;;;;1.22;0.70;;;;;;;7.28;51.49;95363.80;1730621;82;21020;-85
2022/02/19 03:49:00;;;;;;;1.10;0.60;;;;;;;7.26;51.61;95368.84;1733632;83;21226;-85
2022/02/19 03:51:26;;;;;;;2.40;0.80;;;;;;;7.24;51.06;95372.91;1733759;82;21096;-85
2022/02/19 03:53:52;;;;;;;2.05;0.65;;;;;;;7.22;52.06;95371.02;1733645;82;21183;-86
2022/02/19 03:56:18;;;;;;;1.30;0.72;;;;;;;7.19;51.96;95386.39;1733430;83;21044;-85
2022/02/19 03:58:45;;;;;;;1.25;0.60;;;;;;;7.17;51.22;95373.36;1731029;82;20977;-85
2022/02/19 04:01:10;;;;;;;1.12;0.72;;;;;;;7.16;51.79;95377.73;1744237;82;21428;-86
2022/02/19 04:03:36;;;;;;;1.65;0.50;;;;;;;7.15;51.60;95363.18;1719687;81;21063;-85
2022/02/19 04:06:02;;;;;;;1.60;0.50;;;;;;;7.13;51.09;95374.20;1733862;83;21099;-85
2022/02/19 04:08:28;;;;;;;1.07;0.70;;;;;;;7.12;50.93;95370.51;1734176;82;21046;-85
2022/02/19 04:10:53;;;;;;;0.95;0.57;;;;;;;7.11;51.45;95370.20;1733495;83;20976;-86
2022/02/19 04:13:20;;;;;;;1.27;0.95;;;;;;;7.07;50.70;95391.73;1731510;82;20993;-85
2022/02/19 04:15:47;;;;;;;2.65;0.60;;;;;;;7.06;51.00;95388.84;1726026;82;20993;-85
2022/02/19 04:18:12;;;;;;;3.52;0.72;;;;;;;7.04;50.58;95400.34;1731332;83;21052;-85
2022/02/19 04:20:38;;;;;;;2.35;0.70;;;;;;;7.04;50.32;95391.30;1733546;83;21032;-85
2022/02/19 04:23:06;;;;;;;1.90;0.62;;;;;;;7.00;49.84;95399.92;1733434;82;21084;-85
2022/02/19 04:25:32;;;;;;;1.72;0.60;;;;;;;7.01;50.82;95407.98;1733702;83;21375;-88
2022/02/19 04:28:05;;;;;;;0.90;0.80;;;;;;;6.81;50.39;95384.99;1715843;83;20998;-85
2022/02/19 04:30:31;;;;;;;1.72;0.90;;;;;;;6.96;50.91;95397.37;1690505;84;21009;-85
2022/02/19 04:32:58;;;;;;;1.32;0.60;;;;;;;6.92;51.22;95415.02;1725363;83;21377;-85
2022/02/19 04:35:25;;;;;;;2.58;0.65;;;;;;;6.91;51.45;95424.25;1761647;81;21013;-86
2022/02/19 04:37:51;;;;;;;1.62;0.80;;;;;;;6.87;50.22;95433.34;1760010;81;21373;-86
2022/02/19 04:40:17;;;;;;;3.42;0.90;;;;;;;6.87;50.91;95423.02;1761730;81;21002;-85
2022/02/19 04:42:43;;;;;;;0.75;0.70;;;;;;;6.84;50.24;95442.75;1730724;81;21053;-86
2022/02/19 04:45:12;;;;;;;3.40;0.90;;;;;;;6.82;49.65;95436.45;1761850;81;21002;-86
2022/02/19 04:47:38;;;;;;;1.92;0.72;;;;;;;6.80;50.47;95428.09;1751387;81;21060;-85
2022/02/19 04:50:05;;;;;;;2.02;0.68;;;;;;;6.76;50.59;95431.22;1742122;82;21408;-85
2022/02/19 04:52:31;;;;;;;2.83;0.70;;;;;;;6.71;50.64;95427.90;1741714;82;21400;-85
2022/02/19 04:54:57;;;;;;;1.87;0.70;;;;;;;6.68;50.47;95446.34;1741831;82;21393;-85
2022/02/19 04:57:23;;;;;;;3.58;1.00;;;;;;;6.63;50.76;95440.40;1738875;82;21612;-86
2022/02/19 04:59:49;;;;;;;2.22;0.72;;;;;;;6.59;49.21;95439.66;1710962;84;21004;-85
2022/02/19 05:02:16;;;;;;;1.70;0.80;;;;;;;6.56;50.60;95457.59;1699683;84;20980;-85
2022/02/19 05:04:42;;;;;;;1.02;0.80;;;;;;;6.54;50.60;95449.23;1715753;83;21378;-85
2022/02/19 05:07:07;;;;;;;2.27;0.62;;;;;;;6.50;49.54;95457.49;1715522;83;21028;-85
2022/02/19 05:09:33;;;;;;;1.75;0.70;;;;;;;6.46;50.86;95451.89;1740624;82;21035;-85
2022/02/19 05:11:59;;;;;;;1.55;0.65;;;;;;;6.43;50.68;95456.62;1741584;82;21331;-85
2022/02/19 05:14:25;;;;;;;2.30;0.70;;;;;;;6.41;50.94;95453.42;1721746;82;20986;-85
2022/02/19 05:16:51;;;;;;;2.08;1.00;;;;;;;6.36;50.85;95449.29;1723501;83;21426;-86
2022/02/19 05:19:16;;;;;;;3.70;1.52;;;;;;;6.21;51.07;95437.19;1699970;84;21023;-85
2022/02/19 05:21:42;;;;;;;2.10;0.78;;;;;;;6.29;51.24;95431.92;1699935;84;21043;-85
2022/02/19 05:24:08;;;;;;;2.00;0.80;;;;;;;6.25;51.34;95458.27;1700071;84;21477;-85
2022/02/19 05:26:34;;;;;;;2.15;1.07;;;;;;;6.22;51.33;95452.17;1699252;84;21090;-85
2022/02/19 05:29:00;;;;;;;2.25;1.25;;;;;;;6.20;50.98;95460.58;1691279;85;20984;-85
2022/02/19 05:31:25;;;;;;;2.58;0.80;;;;;;;6.16;51.45;95444.63;1672336;85;21073;-85
2022/02/19 05:33:51;;;;;;;2.52;0.98;;;;;;;6.14;51.55;95443.22;1691508;85;21112;-85
2022/02/19 05:36:17;;;;;;;3.58;1.00;;;;;;;6.09;51.24;95447.62;1691607;85;21386;-85
2022/02/19 05:38:42;;;;;;;2.40;0.90;;;;;;;6.07;51.11;95453.94;1691361;85;21039;-85
2022/02/19 05:41:08;;;;;;;1.52;0.90;;;;;;;6.08;51.14;95464.56;1691473;85;20968;-85
2022/02/19 05:43:34;;;;;;;2.20;0.98;;;;;;;6.05;51.02;95479.11;1691383;85;21382;-85
2022/02/19 05:46:00;;;;;;;3.98;0.80;;;;;;;6.03;50.48;95461.72;1691590;85;20945;-86
2022/02/19 05:48:25;;;;;;;1.00;0.78;;;;;;;6.04;50.79;95478.79;1691597;85;21027;-85
2022/02/19 05:50:51;;;;;;;1.90;0.90;;;;;;;6.02;50.16;95478.97;1691393;85;21350;-85
2022/02/19 05:53:17;;;;;;;4.00;1.20;;;;;;;6.01;50.74;95474.76;1691638;85;21012;-86
2022/02/19 05:55:42;;;;;;;1.87;0.80;;;;;;;6.00;50.42;95488.14;1691254;85;20969;-85
2022/02/19 05:58:08;;;;;;;2.60;1.07;;;;;;;6.00;50.96;95493.79;1691412;85;21040;-86
2022/02/19 06:00:35;;;;;;;3.05;1.25;;;;;;;6.00;50.78;95510.55;1691403;85;20980;-85
2022/02/19 06:03:01;;;;;;;4.42;1.00;;;;;;;5.99;50.42;95505.88;1685721;85;20992;-86
2022/02/19 06:05:26;;;;;;;2.87;0.95;;;;;;;5.99;50.87;95520.06;1691630;85;20988;-85
2022/02/19 06:07:52;;;;;;;3.67;2.10;;;;;;;6.00;50.95;95507.48;1691404;85;21024;-85
2022/02/19 06:10:18;;;;;;;2.33;1.00;;;;;;;6.01;51.25;95514.73;1691440;85;21062;-85
2022/02/19 06:12:43;;;;;;;3.30;0.98;;;;;;;6.00;51.08;95522.16;1691362;85;21139;-85
2022/02/19 06:15:09;;;;;;;2.67;1.37;;;;;;;6.01;51.61;95510.86;1691538;85;21114;-85
2022/02/19 06:17:36;;;;;;;3.50;2.08;;;;;;;5.98;51.49;95510.73;1691196;85;21091;-85
2022/02/19 06:20:03;;;;;;;4.62;1.10;;;;;;;5.94;51.37;95499.16;1691483;85;21359;-85
2022/02/19 06:22:28;;;;;;;2.65;1.02;;;;;;;5.97;51.51;95519.93;1672382;85;21401;-85
2022/02/19 06:24:54;;;;;;;4.08;1.35;;;;;;;5.94;51.35;95530.11;1673793;85;21028;-85
2022/02/19 06:27:20;;;;;;;4.80;1.35;;;;;;;5.95;51.26;95520.59;1688937;85;21422;-85
2022/02/19 06:29:46;;;;;;;4.75;1.30;;;;;;;5.95;51.00;95534.78;1666767;85;21008;-86
2022/02/19 06:32:11;;;;;;;2.10;0.85;;;;;;;5.95;50.80;95527.04;1665917;86;21068;-86
2022/02/19 06:34:37;;;;;;;3.02;1.87;;;;;;;5.95;51.32;95536.06;1665477;84;21051;-85
2022/02/19 06:37:04;;;;;;;4.22;1.30;;;;;;;5.94;51.37;95549.45;1655905;86;21398;-85
2022/02/19 06:39:29;;;;;;;2.42;1.15;;;;;;;5.94;51.55;95567.50;1658367;86;21010;-85
2022/02/19 06:41:55;;;;;;;3.17;1.50;;;;;;;5.92;51.34;95555.27;1666029;86;21047;-85
2022/02/19 06:44:21;;;;;;;3.80;1.72;;;;;;;5.92;51.75;95568.16;1654053;85;21442;-85
2022/02/19 06:46:46;;;;;;;2.25;1.10;;;;;;;5.95;50.77;95570.88;1666211;86;20990;-85
2022/02/19 06:49:12;;;;;;;2.77;1.07;;;;;;;5.97;50.22;95566.34;1676147;85;21108;-85
2022/02/19 06:51:38;;;;;;;6.75;3.33;;;;;;;5.97;49.89;95572.30;1683002;85;21423;-86
2022/02/19 06:54:03;;;;;;;2.90;1.45;;;;;;;5.96;49.97;95600.84;1683117;85;21067;-85
2022/02/19 06:56:34;;;;;;;3.62;1.30;;;;;;;5.93;49.61;95603.28;1683096;85;21119;-86
2022/02/19 06:59:00;;;;;;;4.30;1.90;;;;;;;5.89;49.54;95596.84;1666596;85;21378;-85
2022/02/19 07:01:27;;;;;;;4.80;1.15;;;;;;;5.87;50.08;95618.62;1646627;85;20967;-85
2022/02/19 07:03:56;;;;;;;2.62;1.20;;;;;;;5.81;49.05;95612.34;1653514;85;21083;-86
2022/02/19 07:06:21;;;;;;;2.75;1.10;;;;;;;5.74;48.76;95616.59;1650142;85;21113;-85
2022/02/19 07:08:47;;;;;;;4.87;1.37;;;;;;;5.71;49.61;95627.25;1662496;85;21022;-85
2022/02/19 07:11:13;;;;;;;4.72;2.50;;;;;;;5.64;49.17;95637.41;1646046;85;21016;-85
2022/02/19 07:13:41;;;;;;;4.08;2.77;;;;;;;5.59;49.03;95648.72;1645808;85;21059;-84
2022/02/19 07:16:07;;;;;;;3.20;1.55;;;;;;;5.54;48.81;95649.72;1648198;85;21026;-85
2022/02/19 07:18:33;;;;;;;3.55;1.25;;;;;;;5.52;48.77;95663.72;1660848;85;21011;-85
2022/02/19 07:20:59;;;;;;;3.72;1.50;;;;;;;5.49;48.76;95655.84;1646758;86;21379;-85
2022/02/19 07:23:25;;;;;;;4.08;1.45;;;;;;;5.47;48.71;95662.14;1664747;85;21045;-85
2022/02/19 07:25:51;;;;;;;7.00;2.45;;;;;;;5.45;49.18;95671.33;1665975;86;21001;-84
2022/02/19 07:28:17;;;;;;;5.50;1.92;;;;;;;5.45;49.15;95662.80;1684478;84;21074;-84
2022/02/19 07:30:43;;;;;;;4.83;1.87;;;;;;;5.44;49.83;95659.42;1685334;85;21012;-84
2022/02/19 07:33:10;;;;;;;5.15;1.98;;;;;;;5.46;49.66;95661.83;1630640;86;21091;-84
2022/02/19 07:35:36;;;;;;;4.83;1.70;;;;;;;5.48;50.17;95665.83;1659340;84;21002;-85
2022/02/19 07:38:04;;;;;;;3.37;1.70;;;;;;;5.54;50.67;95673.40;1651283;86;21066;-84
2022/02/19 07:40:30;;;;;;;4.03;1.60;;;;;;;5.59;50.64;95676.27;1671445;86;21049;-84
2022/02/19 07:42:56;;;;;;;3.77;1.70;;;;;;;5.61;50.76;95663.53;1666795;84;21081;-84
2022/02/19 07:45:23;;;;;;;5.00;1.70;;;;;;;5.62;50.72;95674.16;1670481;84;21480;-83
2022/02/19 07:47:49;;;;;;;4.42;1.92;;;;;;;5.66;50.47;95669.45;1671072;86;21043;-84
2022/02/19 07:58:33;;;;;;;3.22;1.20;;;;;;;5.85;49.35;95701.75;1677766;84;22083;-84
2022/02/19 08:01:04;;;;;;;3.52;1.40;;;;;;;5.89;47.85;95703.04;1700373;84;20996;-84
2022/02/19 08:03:31;;;;;;;4.25;1.52;;;;;;;5.95;47.99;95727.69;1699951;84;22074;-84
2022/02/19 08:05:58;;;;;;;5.83;1.40;;;;;;;5.98;46.73;95711.87;1699940;84;21042;-84
2022/02/19 08:08:24;;;;;;;3.75;1.22;;;;;;;6.05;47.22;95715.08;1700063;83;20975;-84
2022/02/19 08:10:50;;;;;;;3.08;1.45;;;;;;;6.06;46.78;95716.19;1696433;84;21371;-85
2022/02/19 08:13:17;;;;;;;3.33;1.87;;;;;;;6.09;46.32;95700.86;1704630;83;21095;-85
2022/02/19 08:15:43;;;;;;;3.52;1.32;;;;;;;6.09;46.64;95695.22;1700740;84;21390;-85
2022/02/19 08:18:10;;;;;;;3.72;1.47;;;;;;;6.10;47.01;95720.03;1699867;84;21069;-85
2022/02/19 08:20:38;;;;;;;4.37;1.30;;;;;;;6.16;47.12;95735.30;1700291;84;21410;-85
2022/02/19 08:23:05;;;;;;;2.87;1.37;;;;;;;6.22;47.88;95730.77;1700504;83;20984;-84
2022/02/19 08:25:31;;;;;;;4.37;1.35;;;;;;;6.28;46.44;95717.19;1701120;84;20976;-85
2022/02/19 08:27:56;;;;;;;10.00;3.55;;;;;;;6.35;47.49;95716.83;1694438;84;21081;-85
2022/02/19 08:30:22;;;;;;;6.25;3.08;;;;;;;6.44;46.51;95726.59;1680974;84;20969;-84
2022/02/19 08:32:48;;;;;;;16.48;8.68;;;;;;;6.53;47.16;95724.29;1683622;85;21382;-84
2022/02/19 08:35:14;;;;;;;6.42;2.83;;;;;;;6.59;45.89;95737.30;1682266;85;21025;-84
2022/02/19 08:37:39;;;;;;;3.00;1.37;;;;;;;6.60;45.91;95728.58;1682024;85;21061;-84
2022/02/19 08:40:14;;;;;;;3.58;1.30;;;;;;;6.60;45.11;95737.61;1680855;85;21388;-84
2022/02/19 08:42:36;;;;;;;4.87;1.57;;;;;;;6.59;45.90;95741.16;1679162;84;21069;-84
2022/02/19 08:45:03;;;;;;;4.47;2.47;;;;;;;6.58;45.72;95743.44;1683645;84;20980;-84
2022/02/19 08:47:29;;;;;;;4.10;1.12;;;;;;;6.62;45.47;95769.21;1684236;85;21007;-84
2022/02/19 08:49:55;;;;;;;5.28;1.72;;;;;;;6.70;46.38;95777.89;1682246;85;21074;-84
2022/02/19 08:52:20;;;;;;;3.75;1.52;;;;;;;6.76;45.66;95772.83;1680510;85;21086;-84
2022/02/19 08:54:46;;;;;;;2.52;1.10;;;;;;;6.81;45.49;95768.43;1662796;85;21022;-84
2022/02/19 08:57:12;;;;;;;3.12;0.95;;;;;;;6.84;44.92;95784.41;1680998;85;21037;-84
2022/02/19 08:59:37;;;;;;;4.05;1.40;;;;;;;6.86;45.50;95767.45;1667113;85;21037;-84
2022/02/19 09:02:04;;;;;;;3.45;1.40;;;;;;;6.81;44.80;95774.40;1681072;84;22241;-83
2022/02/19 09:04:31;;;;;;;3.08;0.88;;;;;;;6.83;45.68;95785.84;1680684;85;21065;-84
2022/02/19 09:06:56;;;;;;;1.82;1.10;;;;;;;6.86;44.04;95754.53;1682881;84;21050;-84
2022/02/19 09:09:22;;;;;;;6.08;2.25;;;;;;;6.97;45.39;95785.58;1689993;84;21449;-84
2022/02/19 09:11:48;;;;;;;4.97;1.80;;;;;;;7.08;44.31;95792.44;1686008;84;21004;-84
2022/02/19 09:14:13;;;;;;;4.33;1.20;;;;;;;7.16;44.96;95806.59;1683724;85;21066;-84
2022/02/19 09:16:39;;;;;;;4.20;1.52;;;;;;;7.18;43.22;95815.47;1684012;85;20996;-84
2022/02/19 09:19:05;;;;;;;2.90;1.50;;;;;;;7.25;42.77;95811.19;1684637;85;20980;-84
2022/02/19 09:21:32;;;;;;;2.92;1.40;;;;;;;7.24;43.78;95823.80;1668375;85;21163;-84
2022/02/19 09:23:59;;;;;;;2.52;1.10;;;;;;;7.26;43.61;95825.72;1684490;85;20984;-84
2022/02/19 09:26:24;;;;;;;3.90;1.45;;;;;;;7.30;43.31;95829.55;1686302;85;20968;-84
2022/02/19 09:28:50;;;;;;;4.20;1.27;;;;;;;7.31;43.68;95832.94;1693730;84;21054;-84
2022/02/19 09:31:16;;;;;;;2.87;1.45;;;;;;;7.37;43.02;95836.13;1699404;84;21087;-84
2022/02/19 09:33:42;;;;;;;2.77;1.00;;;;;;;7.41;43.03;95839.97;1703523;84;21460;-84
2022/02/19 09:36:08;;;;;;;3.77;1.15;;;;;;;7.39;41.68;95829.01;1700057;84;21015;-84
2022/02/19 09:38:34;;;;;;;3.20;1.40;;;;;;;7.27;42.48;95849.77;1700053;84;20974;-84
2022/02/19 09:41:01;;;;;;;3.58;1.50;;;;;;;7.27;42.28;95830.39;1699379;84;21403;-84
2022/02/19 09:43:28;;;;;;;4.75;1.80;;;;;;;7.30;41.97;95841.67;1699667;83;21073;-84
2022/02/19 09:45:54;;;;;;;4.70;1.92;;;;;;;7.31;42.23;95840.69;1699880;83;21106;-84
2022/02/19 09:48:19;;;;;;;5.53;2.10;;;;;;;7.35;42.20;95849.73;1700344;84;21474;-84
2022/02/19 09:50:45;;;;;;;4.12;1.80;;;;;;;7.37;42.04;95858.10;1699527;84;21355;-84
2022/02/19 09:53:11;;;;;;;3.62;1.62;;;;;;;7.41;42.06;95867.11;1699927;84;21042;-84
2022/02/19 09:55:37;;;;;;;5.28;3.37;;;;;;;7.43;42.30;95870.32;1700011;84;21484;-84
2022/02/19 09:58:04;;;;;;;8.38;2.90;;;;;;;7.44;42.69;95877.90;1699518;84;21080;-84
2022/02/19 10:00:39;;;;;;;4.53;1.70;;;;;;;7.42;41.75;95879.05;1699533;84;21435;-84
2022/02/19 10:03:19;;;;;;;3.77;1.37;;;;;;;7.46;42.48;95871.26;1699656;84;21433;-84
2022/02/19 10:05:46;;;;;;;7.85;3.40;;;;;;;7.52;42.19;95874.45;1698032;84;21089;-84
2022/02/19 10:08:12;;;;;;;4.62;1.85;;;;;;;7.58;40.77;95879.41;1708425;83;20994;-84
2022/02/19 10:10:51;;;;;;;4.45;1.40;;;;;;;7.62;41.39;95906.02;1699875;84;21032;-84
2022/02/19 10:13:31;;;;;;;3.90;1.70;;;;;;;7.59;40.03;95889.57;1702952;83;21092;-84
2022/02/19 10:16:03;;;;;;;3.27;1.50;;;;;;;7.63;40.67;95904.23;1699922;84;21086;-84
2022/02/19 10:18:33;;;;;;;3.37;1.40;;;;;;;7.72;39.61;95929.06;1699634;84;20998;-84
2022/02/19 10:21:20;;;;;;;3.47;1.57;;;;;;;7.80;39.55;95922.02;1679252;84;21467;-85
2022/02/19 10:23:56;;;;;;;6.70;2.90;;;;;;;7.82;39.96;95940.78;1699603;84;21482;-85
2022/02/19 10:26:35;;;;;;;4.05;1.30;;;;;;;7.70;38.35;95941.38;1699970;84;21044;-84
2022/02/19 10:29:05;;;;;;;3.12;1.30;;;;;;;7.43;39.32;95946.08;1686618;84;21076;-85
2022/02/19 10:31:31;;;;;;;2.83;0.80;;;;;;;7.25;39.96;95952.52;1690652;84;21007;-84
2022/02/19 10:34:16;;;;;;;2.50;1.12;;;;;;;7.14;40.69;95957.09;1690964;85;21026;-85
2022/02/19 10:36:54;;;;;;;2.95;1.40;;;;;;;7.06;40.16;95963.61;1690950;85;21023;-84
2022/02/19 10:39:31;;;;;;;5.35;1.20;;;;;;;6.94;39.65;95962.37;1690710;85;21026;-84
2022/02/19 10:42:03;;;;;;;3.77;1.40;;;;;;;6.83;40.49;95960.16;1690752;85;20976;-84
2022/02/19 10:44:35;;;;;;;3.67;1.20;;;;;;;6.74;39.85;95968.44;1690791;83;20967;-84
2022/02/19 10:47:23;;;;;;;4.00;1.70;;;;;;;6.76;40.20;95970.36;1691021;84;20962;-83
2022/02/19 10:50:16;;;;;;;3.47;1.80;;;;;;;6.87;39.80;95952.41;1690891;85;20983;-84
2022/02/19 10:52:44;;;;;;;2.80;1.17;;;;;;;7.08;40.47;95951.32;1690896;85;21079;-84
2022/02/19 10:55:14;;;;;;;4.05;1.50;;;;;;;7.27;40.56;95944.91;1681830;85;21031;-84
2022/02/19 10:57:43;;;;;;;2.52;1.40;;;;;;;7.46;40.91;95966.91;1690584;84;21050;-84
2022/02/19 11:00:18;;;;;;;5.60;1.20;;;;;;;7.59;39.94;95971.02;1690811;85;21011;-84
2022/02/19 11:02:46;;;;;;;1.75;0.90;;;;;;;7.74;40.94;95956.84;1690721;85;21475;-84
2022/02/19 11:05:12;;;;;;;3.12;1.30;;;;;;;7.94;39.49;95946.81;1690792;85;22155;-84
2022/02/19 11:07:43;;;;;;;3.83;1.22;;;;;;;8.09;38.91;95966.55;1694311;83;20992;-85
2022/02/19 11:10:17;;;;;;;2.60;0.95;;;;;;;8.22;38.66;95977.59;1690898;85;21018;-84
2022/02/19 11:12:42;;;;;;;4.65;1.42;;;;;;;8.27;38.50;95970.59;1689757;84;21079;-84
2022/02/19 11:15:09;;;;;;;2.15;1.00;;;;;;;8.18;39.01;95984.12;1690366;85;20996;-84
2022/02/19 11:17:35;;;;;;;3.67;1.50;;;;;;;8.00;38.78;95977.97;1666711;85;21404;-84
2022/02/19 11:20:07;;;;;;;9.48;2.95;;;;;;;7.82;39.08;95995.59;1690515;84;21008;-84
2022/02/19 11:22:35;;;;;;;5.72;2.90;;;;;;;7.68;38.50;96000.22;1680983;83;21087;-84
2022/02/19 11:25:04;;;;;;;4.42;2.75;;;;;;;7.52;38.15;95995.96;1682150;85;21022;-83
2022/02/19 11:27:46;;;;;;;2.72;1.40;;;;;;;7.36;38.53;96003.33;1690344;85;21051;-84
2022/02/19 11:30:13;;;;;;;3.42;1.62;;;;;;;7.28;38.60;95998.69;1675354;83;22929;-84
2022/02/19 11:32:41;;;;;;;3.50;1.65;;;;;;;7.25;38.55;95988.69;1691578;83;21051;-84
2022/02/19 11:35:08;;;;;;;4.05;2.00;;;;;;;7.25;38.84;95985.62;1672437;85;21015;-84
2022/02/19 11:37:42;;;;;;;5.20;1.90;;;;;;;7.28;39.23;95996.91;1689250;85;21026;-84
2022/02/19 11:40:13;;;;;;;3.35;1.30;;;;;;;7.30;38.72;95992.85;1752617;82;21071;-84
2022/02/19 11:42:48;;;;;;;3.00;1.50;;;;;;;7.28;38.70;95990.93;1748980;82;21039;-84
2022/02/19 11:45:24;;;;;;;2.85;1.40;;;;;;;7.30;39.28;96013.53;1689861;85;21053;-83
2022/02/19 11:48:07;;;;;;;2.58;1.12;;;;;;;7.31;39.34;96005.60;1712472;82;21032;-84
2022/02/19 11:50:36;;;;;;;3.90;1.40;;;;;;;7.33;39.41;96010.62;1701045;83;21046;-85